In Rescue
 
Open Full Screen Window  High Contrast Mode
Wind Gusting 00 knots
06
June 22, 2024 7:30 PM CDT
Weather Information
Wind Direction
  310 °
Wind Speed
  06 kt (7 mph)
Wind Gust
  00 kt (0 mph)
Altimeter
29.77 in
Visibility
10 SM
Temperature
22° C
72° F
Dewpoint
20° C
68° F
Humidity
88%
Sky Condition
Overcast @ 5,000 ft
Broken @ 3,800 ft
Scattered @ 2,300 ft
VFR

METAR KOWA 230030Z AUTO 31006KT 10SM SCT023 BKN038 OVC050 22/20 A2977 RMK AO2

FAA Disclaimer: The data displayed is for advisory purposes only and is not to be used for flight planning or operations.